Time;durP1;ratioP1;P1;durP2;ratioP2;P2;SDS_P1;SDS_P2;PMS_P1;PMS_P2;Temp;Humidity;BMP_temperature;BMP_pressure;BME280_temperature;BME280_humidity;BME280_pressure;Samples;Min_cycle;Max_cycle;Signal;HPM_P1;HPM_P2
2022/08/16 00:02:12;;;;;;;30.60;26.55;;;19.70;99.90;;;;;;5014456;28;20078;-85
2022/08/16 00:04:38;;;;;;;31.92;26.35;;;19.70;99.90;;;;;;5013894;28;20054;-85
2022/08/16 00:07:03;;;;;;;33.33;27.45;;;19.70;99.90;;;;;;5014003;28;20041;-85
2022/08/16 00:09:29;;;;;;;34.22;28.17;;;19.70;99.90;;;;;;5015496;28;20133;-85
2022/08/16 00:11:55;;;;;;;38.50;29.17;;;19.60;99.90;;;;;;5015391;28;20364;-85
2022/08/16 00:17:59;;;;;;;29.83;24.20;;;19.70;99.90;;;;;;5015185;28;20050;-83
2022/08/16 00:20:25;;;;;;;35.30;27.58;;;19.60;99.90;;;;;;5013790;28;20446;-84
2022/08/16 00:22:51;;;;;;;35.70;28.38;;;19.60;99.90;;;;;;5014087;28;20041;-84
2022/08/16 00:25:19;;;;;;;34.25;29.05;;;19.70;99.90;;;;;;5015161;28;20136;-85
2022/08/16 00:27:45;;;;;;;38.40;29.98;;;19.70;99.90;;;;;;5015075;28;20049;-84
2022/08/16 00:30:13;;;;;;;30.65;27.38;;;19.70;99.90;;;;;;5015070;28;20096;-84
2022/08/16 00:32:41;;;;;;;29.95;26.75;;;19.60;99.90;;;;;;5014280;28;20045;-85
2022/08/16 00:35:10;;;;;;;35.03;29.77;;;19.60;99.90;;;;;;5014574;28;20510;-85
2022/08/16 00:37:38;;;;;;;32.03;28.77;;;19.60;99.90;;;;;;5014611;28;20049;-86
2022/08/16 00:40:07;;;;;;;34.13;30.60;;;19.50;99.90;;;;;;5014166;28;20515;-84
2022/08/16 00:42:33;;;;;;;35.03;31.33;;;19.50;99.90;;;;;;5014334;28;20127;-85
2022/08/16 00:45:11;;;;;;;30.75;27.45;;;19.40;99.90;;;;;;5014403;28;20100;-84
2022/08/16 00:47:43;;;;;;;29.45;26.35;;;19.40;99.90;;;;;;5014387;28;20463;-84
2022/08/16 00:50:09;;;;;;;34.75;29.38;;;19.40;99.90;;;;;;5014388;28;20042;-84
2022/08/16 00:52:36;;;;;;;31.42;27.35;;;19.40;99.90;;;;;;5014079;28;20046;-85
2022/08/16 00:55:03;;;;;;;33.75;29.02;;;19.40;99.90;;;;;;5014434;28;20049;-84
2022/08/16 00:57:29;;;;;;;31.60;27.83;;;19.40;99.90;;;;;;5012773;28;20065;-83
2022/08/16 00:59:54;;;;;;;33.03;29.50;;;19.40;99.90;;;;;;5013109;28;20057;-84
2022/08/16 01:02:20;;;;;;;29.98;24.95;;;19.30;99.90;;;;;;5012608;28;20061;-84
2022/08/16 01:04:46;;;;;;;27.67;24.40;;;19.30;99.90;;;;;;5012741;28;20092;-84
2022/08/16 01:07:11;;;;;;;32.58;27.67;;;19.30;99.90;;;;;;5015560;28;20045;-83
2022/08/16 01:09:38;;;;;;;31.00;25.77;;;19.30;99.90;;;;;;5015549;28;20089;-84
2022/08/16 01:12:07;;;;;;;26.33;22.83;;;19.20;99.90;;;;;;5033092;28;20049;-84
2022/08/16 01:14:39;;;;;;;27.17;24.45;;;19.20;99.90;;;;;;5015570;28;20049;-84
2022/08/16 01:17:05;;;;;;;29.00;25.70;;;19.10;99.90;;;;;;4998962;28;20084;-84
2022/08/16 01:19:44;;;;;;;33.97;28.83;;;19.20;99.90;;;;;;4999597;28;20053;-84
2022/08/16 01:22:53;;;;;;;33.53;28.15;;;19.30;99.90;;;;;;5033057;28;20509;-84
2022/08/16 01:25:34;;;;;;;28.98;24.50;;;19.20;99.90;;;;;;5001668;28;20514;-84
2022/08/16 01:28:00;;;;;;;;;;;19.20;99.90;;;;;;5016047;28;20093;-84
2022/08/16 01:30:33;;;;;;;30.70;24.60;;;19.20;99.90;;;;;;5032876;28;19991;-84
2022/08/16 01:33:02;;;;;;;33.35;26.88;;;19.20;99.90;;;;;;5015308;28;20049;-84
2022/08/16 01:35:38;;;;;;;35.00;29.60;;;19.10;99.90;;;;;;5015759;28;20052;-83
2022/08/16 01:38:29;;;;;;;35.60;30.73;;;19.10;99.90;;;;;;5032760;28;20510;-85
2022/08/16 01:40:58;;;;;;;34.22;28.75;;;19.10;99.90;;;;;;5033181;28;20053;-83
2022/08/16 01:43:24;;;;;;;27.88;25.05;;;19.00;99.90;;;;;;4998867;28;20045;-84
2022/08/16 01:45:57;;;;;;;28.52;24.45;;;19.00;99.90;;;;;;5032954;28;20042;-83
2022/08/16 01:48:28;;;;;;;26.08;23.35;;;19.00;99.90;;;;;;5032923;28;20084;-83
2022/08/16 01:50:56;;;;;;;27.88;23.98;;;19.00;99.90;;;;;;4998596;28;20080;-84
2022/08/16 01:53:22;;;;;;;26.60;21.02;;;18.90;99.90;;;;;;5032698;28;20053;-84
2022/08/16 01:55:49;;;;;;;29.20;24.85;;;18.80;99.90;;;;;;5032939;28;20045;-83
2022/08/16 01:58:16;;;;;;;28.23;24.38;;;18.90;99.90;;;;;;5032870;28;20045;-83
2022/08/16 02:00:42;;;;;;;26.65;23.80;;;18.70;99.90;;;;;;5033177;28;20045;-83
2022/08/16 02:03:09;;;;;;;22.23;19.25;;;18.80;99.90;;;;;;5032765;28;20053;-84
2022/08/16 02:05:35;;;;;;;23.23;20.65;;;18.70;99.90;;;;;;5032880;28;20141;-84
2022/08/16 02:08:03;;;;;;;23.27;20.27;;;18.70;99.90;;;;;;5032484;28;20514;-83
2022/08/16 02:10:29;;;;;;;26.48;23.67;;;18.70;99.90;;;;;;5032457;28;20487;-83
2022/08/16 02:12:55;;;;;;;30.10;23.52;;;18.60;99.90;;;;;;5032334;28;20054;-83
2022/08/16 02:15:24;;;;;;;21.25;19.00;;;18.60;99.90;;;;;;5032697;28;20047;-84
2022/08/16 02:17:50;;;;;;;25.92;22.63;;;18.50;99.90;;;;;;5032484;28;20065;-83
2022/08/16 02:20:17;;;;;;;28.23;23.05;;;18.50;99.90;;;;;;5014829;28;20414;-83
2022/08/16 02:22:43;;;;;;;26.27;22.48;;;18.50;99.90;;;;;;4998470;28;20045;-83
2022/08/16 02:25:12;;;;;;;24.40;21.75;;;18.50;99.90;;;;;;5032555;28;20099;-83
2022/08/16 02:27:40;;;;;;;25.90;22.95;;;18.40;99.90;;;;;;5016653;28;20430;-83
2022/08/16 02:30:11;;;;;;;28.52;22.30;;;18.40;99.90;;;;;;5036532;28;20103;-83
2022/08/16 02:32:37;;;;;;;27.58;22.67;;;18.30;99.90;;;;;;5019084;28;20114;-84
2022/08/16 02:35:03;;;;;;;26.08;20.42;;;18.30;99.90;;;;;;5036530;28;20483;-82
2022/08/16 02:37:29;;;;;;;24.35;17.65;;;18.30;99.90;;;;;;5036541;28;20049;-89
2022/08/16 02:39:55;;;;;;;25.80;22.02;;;18.20;99.90;;;;;;5036180;28;20264;-83
2022/08/16 02:42:21;;;;;;;24.20;21.35;;;18.20;99.90;;;;;;5018680;28;20053;-83
2022/08/16 02:44:47;;;;;;;24.02;20.50;;;18.20;99.90;;;;;;5018615;28;20041;-83
2022/08/16 02:47:12;;;;;;;26.25;21.52;;;18.10;99.90;;;;;;5036125;28;20052;-83
2022/08/16 02:49:38;;;;;;;25.88;21.02;;;18.10;99.90;;;;;;5036384;28;20053;-83
2022/08/16 02:52:04;;;;;;;26.80;20.95;;;18.10;99.90;;;;;;5036021;28;20487;-83
2022/08/16 02:54:29;;;;;;;26.15;22.92;;;18.10;99.90;;;;;;5035831;28;20119;-83
2022/08/16 02:56:55;;;;;;;28.25;20.27;;;18.20;99.90;;;;;;5018128;28;20471;-84
2022/08/16 02:59:21;;;;;;;24.55;21.48;;;18.10;99.90;;;;;;5018363;28;20041;-83
2022/08/16 03:01:46;;;;;;;25.67;21.05;;;18.00;99.90;;;;;;5036124;28;20091;-83
2022/08/16 03:04:12;;;;;;;24.45;20.25;;;18.00;99.90;;;;;;5018476;28;20052;-83
2022/08/16 03:06:38;;;;;;;22.48;20.17;;;18.00;99.90;;;;;;5018003;28;20403;-84
2022/08/16 03:09:03;;;;;;;26.23;20.42;;;17.90;99.90;;;;;;5036084;28;20430;-84
2022/08/16 03:11:31;;;;;;;26.38;21.10;;;17.90;99.90;;;;;;5035994;28;20375;-84
2022/08/16 03:13:58;;;;;;;25.15;21.38;;;17.90;99.90;;;;;;5018073;28;20084;-83
2022/08/16 03:16:24;;;;;;;26.38;21.67;;;17.80;99.90;;;;;;5035518;28;20069;-83
2022/08/16 03:18:50;;;;;;;28.33;22.30;;;17.80;99.90;;;;;;5035600;28;20045;-83
2022/08/16 03:21:16;;;;;;;25.13;21.92;;;17.80;99.90;;;;;;5035471;28;20453;-83
2022/08/16 03:23:42;;;;;;;29.05;22.80;;;17.70;99.90;;;;;;5001707;28;20049;-83
2022/08/16 03:26:08;;;;;;;25.02;22.27;;;17.70;99.90;;;;;;5035353;28;20080;-84
2022/08/16 03:28:34;;;;;;;29.63;22.42;;;17.70;99.90;;;;;;5017534;28;20319;-89
2022/08/16 03:30:59;;;;;;;27.35;21.95;;;17.60;99.90;;;;;;5035487;28;20049;-83
2022/08/16 03:33:25;;;;;;;25.05;22.35;;;17.60;99.90;;;;;;5035265;28;20056;-83
2022/08/16 03:35:52;;;;;;;29.58;21.65;;;17.60;99.90;;;;;;5035203;28;20050;-84
2022/08/16 03:38:18;;;;;;;26.40;22.20;;;17.50;99.90;;;;;;5034627;28;20079;-83
2022/08/16 03:40:44;;;;;;;27.63;23.35;;;17.60;99.90;;;;;;5017561;28;20049;-84
2022/08/16 03:43:11;;;;;;;31.98;26.52;;;17.50;99.90;;;;;;5017232;28;20071;-83
2022/08/16 03:45:39;;;;;;;34.85;26.67;;;17.50;99.90;;;;;;5034926;28;20124;-84
2022/08/16 03:48:06;;;;;;;30.15;26.23;;;17.50;99.90;;;;;;5017545;28;20096;-87
2022/08/16 03:50:34;;;;;;;29.27;25.65;;;17.60;99.90;;;;;;5017488;28;20046;-83
2022/08/16 03:53:00;;;;;;;33.15;27.33;;;17.60;99.90;;;;;;5034760;28;20041;-83
2022/08/16 03:55:26;;;;;;;28.45;24.75;;;17.60;99.90;;;;;;5017562;28;20100;-84
2022/08/16 03:57:52;;;;;;;30.83;26.52;;;17.60;99.90;;;;;;5034576;28;20091;-84
2022/08/16 04:00:29;;;;;;;35.42;27.63;;;17.60;99.90;;;;;;5000832;28;20410;-83
2022/08/16 04:02:57;;;;;;;31.65;28.05;;;17.60;99.90;;;;;;5034546;28;20050;-83
2022/08/16 04:05:24;;;;;;;37.15;30.25;;;17.60;99.90;;;;;;5034462;28;20410;-83
2022/08/16 04:07:50;;;;;;;32.08;27.60;;;17.60;99.90;;;;;;5034591;28;20053;-83
2022/08/16 04:10:16;;;;;;;33.95;28.40;;;17.60;99.90;;;;;;5016809;28;20128;-85
2022/08/16 04:12:44;;;;;;;34.63;29.48;;;17.60;99.90;;;;;;5034051;28;20588;-84
2022/08/16 04:15:13;;;;;;;32.28;26.92;;;17.60;99.90;;;;;;5034073;28;20056;-83
2022/08/16 04:17:39;;;;;;;31.63;27.75;;;17.60;99.90;;;;;;5016533;28;20053;-83
2022/08/16 04:20:08;;;;;;;33.97;27.85;;;17.70;99.90;;;;;;5016773;28;20053;-83
2022/08/16 04:22:35;;;;;;;33.22;26.95;;;17.60;99.90;;;;;;5016220;28;20132;-83
2022/08/16 04:25:02;;;;;;;32.42;26.40;;;17.70;99.90;;;;;;5016658;28;20050;-84
2022/08/16 04:27:28;;;;;;;29.77;26.63;;;17.60;99.90;;;;;;5034349;28;20553;-85
2022/08/16 04:29:54;;;;;;;33.20;27.33;;;17.60;99.90;;;;;;5016532;28;20049;-84
2022/08/16 04:32:19;;;;;;;29.73;25.30;;;17.60;99.90;;;;;;5016221;28;20053;-83
2022/08/16 04:34:45;;;;;;;25.95;23.00;;;17.60;99.90;;;;;;5016618;28;20100;-84
2022/08/16 04:37:11;;;;;;;33.63;26.05;;;17.60;99.90;;;;;;5034264;28;20042;-82
2022/08/16 04:39:36;;;;;;;35.80;28.33;;;17.60;99.90;;;;;;5033873;28;20486;-83
2022/08/16 04:42:03;;;;;;;35.13;26.10;;;17.60;99.90;;;;;;5016215;28;20049;-83
2022/08/16 04:44:29;;;;;;;21.50;19.27;;;17.60;99.90;;;;;;5033866;28;20049;-83
2022/08/16 04:46:55;;;;;;;30.95;25.83;;;17.60;99.90;;;;;;5033743;28;20063;-83
2022/08/16 04:49:21;;;;;;;32.17;25.48;;;17.60;99.90;;;;;;5033154;28;20045;-83
2022/08/16 04:51:47;;;;;;;20.92;18.65;;;17.60;99.90;;;;;;5033518;28;20041;-84
2022/08/16 04:54:13;;;;;;;28.02;24.75;;;17.60;99.90;;;;;;5016326;28;20107;-83
2022/08/16 04:56:39;;;;;;;27.55;23.92;;;17.70;99.90;;;;;;5033467;28;20540;-84
2022/08/16 04:59:07;;;;;;;26.73;21.90;;;17.70;99.90;;;;;;5033671;28;20091;-83
2022/08/16 05:01:33;;;;;;;29.20;25.80;;;17.70;99.90;;;;;;5050258;28;20060;-82
2022/08/16 05:03:59;;;;;;;25.42;22.73;;;17.70;99.90;;;;;;5020471;28;20490;-83
2022/08/16 05:06:25;;;;;;;34.38;27.83;;;17.70;99.90;;;;;;5053249;28;20049;-84
2022/08/16 05:08:50;;;;;;;35.85;26.15;;;17.70;99.90;;;;;;5030680;28;20057;-85
2022/08/16 05:11:16;;;;;;;32.13;25.35;;;17.70;99.90;;;;;;5018805;28;20059;-83
2022/08/16 05:13:46;;;;;;;30.17;25.63;;;17.80;99.90;;;;;;5053040;28;20051;-86
2022/08/16 05:16:15;;;;;;;28.25;23.80;;;17.90;99.90;;;;;;5035607;28;20133;-84
2022/08/16 05:18:41;;;;;;;31.90;25.83;;;17.80;99.90;;;;;;5053023;28;20053;-86
2022/08/16 05:21:07;;;;;;;28.35;23.45;;;17.90;99.90;;;;;;5011420;28;20123;-84
2022/08/16 05:23:33;;;;;;;24.45;20.80;;;17.90;99.90;;;;;;5055401;28;20053;-84
2022/08/16 05:25:59;;;;;;;26.98;24.08;;;17.90;99.90;;;;;;5055368;28;20083;-83
2022/08/16 05:28:26;;;;;;;27.75;24.15;;;18.00;99.90;;;;;;5055997;28;20102;-83
2022/08/16 05:30:51;;;;;;;20.48;18.27;;;18.00;99.90;;;;;;5052935;28;20048;-84
2022/08/16 05:33:19;;;;;;;27.85;23.77;;;18.00;99.90;;;;;;5021618;28;20628;-83
2022/08/16 05:35:46;;;;;;;28.17;23.40;;;18.10;99.90;;;;;;5046560;28;20033;-83
2022/08/16 05:38:12;;;;;;;31.52;24.23;;;18.10;99.90;;;;;;5028193;28;20192;-86
2022/08/16 05:40:38;;;;;;;31.73;23.90;;;18.10;99.90;;;;;;5038394;28;20490;-83
2022/08/16 05:43:03;;;;;;;28.42;23.48;;;18.20;99.90;;;;;;5024012;28;20063;-85
2022/08/16 05:45:29;;;;;;;28.15;23.15;;;18.20;99.90;;;;;;5015645;28;20093;-83
2022/08/16 05:48:00;;;;;;;25.55;21.73;;;18.30;99.90;;;;;;5014610;28;20067;-83
2022/08/16 05:50:26;;;;;;;27.17;24.33;;;18.30;99.90;;;;;;5015228;28;20049;-83
2022/08/16 05:52:52;;;;;;;27.17;23.80;;;18.30;99.90;;;;;;5032548;28;20107;-84
2022/08/16 05:55:18;;;;;;;28.55;23.75;;;18.40;99.90;;;;;;5014858;28;20498;-83
2022/08/16 05:57:45;;;;;;;28.50;24.42;;;18.40;99.90;;;;;;5032572;28;20478;-86
2022/08/16 06:00:13;;;;;;;28.27;24.70;;;18.40;99.90;;;;;;4999186;28;20050;-84
2022/08/16 06:02:42;;;;;;;30.38;24.75;;;18.50;99.90;;;;;;5015091;28;20049;-88
2022/08/16 06:05:09;;;;;;;28.98;24.50;;;18.60;99.90;;;;;;5032352;28;20089;-83
2022/08/16 06:07:35;;;;;;;27.90;24.20;;;18.50;99.90;;;;;;5032668;28;20516;-84
2022/08/16 06:10:01;;;;;;;28.27;23.10;;;18.50;99.90;;;;;;5014986;28;20089;-84
2022/08/16 06:12:28;;;;;;;25.48;22.75;;;18.60;99.90;;;;;;5032627;28;20041;-84
2022/08/16 06:14:57;;;;;;;26.85;21.02;;;18.70;99.90;;;;;;5032458;28;20060;-84
2022/08/16 06:17:24;;;;;;;26.25;23.45;;;18.80;99.90;;;;;;5032357;28;20107;-84
2022/08/16 06:19:50;;;;;;;21.55;15.50;;;18.80;99.90;;;;;;5032321;28;20137;-84
2022/08/16 06:22:15;;;;;;;22.98;20.45;;;18.90;99.90;;;;;;5032256;28;20041;-82
2022/08/16 06:24:43;;;;;;;26.17;19.63;;;18.90;99.90;;;;;;5032153;28;20045;-82
2022/08/16 06:27:09;;;;;;;21.35;18.73;;;18.90;99.90;;;;;;5032112;28;20042;-82
2022/08/16 06:29:34;;;;;;;22.83;20.13;;;18.90;99.90;;;;;;5031234;28;20107;-83
2022/08/16 06:32:01;;;;;;;26.40;20.17;;;18.90;99.90;;;;;;5014917;28;20052;-81
2022/08/16 06:34:27;;;;;;;21.08;18.75;;;19.00;99.90;;;;;;5032070;28;20040;-82
2022/08/16 06:36:52;;;;;;;23.10;20.67;;;19.00;99.90;;;;;;5032253;28;20037;-82
2022/08/16 06:39:18;;;;;;;25.25;20.42;;;19.10;99.90;;;;;;5032202;28;20115;-82
2022/08/16 06:41:44;;;;;;;26.35;20.17;;;19.30;99.90;;;;;;5014532;28;20037;-83
2022/08/16 06:44:10;;;;;;;26.65;20.13;;;19.40;99.90;;;;;;5014911;28;20042;-82
2022/08/16 06:46:36;;;;;;;22.58;20.33;;;19.50;99.90;;;;;;5032375;28;20371;-81
2022/08/16 06:49:11;;;;;;;24.63;20.45;;;19.60;99.90;;;;;;5032329;28;20045;-82
2022/08/16 06:51:38;;;;;;;21.92;19.63;;;19.80;99.90;;;;;;5032513;28;20411;-82
2022/08/16 06:54:05;;;;;;;22.30;19.90;;;19.90;99.90;;;;;;5014583;28;20555;-81
2022/08/16 06:56:31;;;;;;;24.42;21.45;;;20.00;99.90;;;;;;5031871;28;20049;-82
2022/08/16 06:58:57;;;;;;;26.10;20.58;;;20.20;99.90;;;;;;4997973;28;20615;-81
2022/08/16 07:01:22;;;;;;;22.17;19.20;;;20.30;99.90;;;;;;5032055;28;20140;-81
2022/08/16 07:03:49;;;;;;;21.95;19.63;;;20.40;99.90;;;;;;5032053;28;20042;-83
2022/08/16 07:06:15;;;;;;;23.17;20.42;;;20.60;99.90;;;;;;5031898;28;20045;-82
2022/08/16 07:08:41;;;;;;;23.35;20.80;;;20.70;99.90;;;;;;5031787;28;20049;-81
2022/08/16 07:11:08;;;;;;;17.95;15.55;;;20.80;99.90;;;;;;5014330;28;20053;-82
2022/08/16 07:13:34;;;;;;;21.40;19.08;;;20.90;99.90;;;;;;5033492;28;20421;-83
2022/08/16 07:16:02;;;;;;;24.08;20.27;;;21.00;99.90;;;;;;5035618;28;20045;-83
2022/08/16 07:18:28;;;;;;;23.05;20.75;;;21.20;99.90;;;;;;5035438;28;20080;-81
2022/08/16 07:20:53;;;;;;;25.10;21.55;;;21.20;99.90;;;;;;5035900;28;20088;-83
2022/08/16 07:23:20;;;;;;;22.23;19.85;;;21.40;99.90;;;;;;5018434;28;20053;-82
2022/08/16 07:25:46;;;;;;;23.45;20.88;;;21.40;99.90;;;;;;5001854;28;20110;-82
2022/08/16 07:28:14;;;;;;;22.45;20.23;;;21.50;99.90;;;;;;5035997;28;20045;-82
2022/08/16 07:30:41;;;;;;;16.52;14.57;;;21.70;99.90;;;;;;5018158;28;20049;-83
2022/08/16 07:33:08;;;;;;;24.55;21.95;;;21.80;99.90;;;;;;5035179;28;20092;-83
2022/08/16 07:35:34;;;;;;;23.05;20.65;;;21.80;99.90;;;;;;5035197;28;20049;-82
2022/08/16 07:38:00;;;;;;;23.90;21.40;;;22.00;99.90;;;;;;5035147;28;20052;-81
2022/08/16 07:40:27;;;;;;;26.90;23.08;;;22.10;99.90;;;;;;5017619;28;20526;-82
2022/08/16 07:42:54;;;;;;;27.58;22.55;;;22.10;99.90;;;;;;5035031;28;20045;-83
2022/08/16 07:45:21;;;;;;;27.25;21.65;;;22.20;99.90;;;;;;5034873;28;20168;-83
2022/08/16 07:47:47;;;;;;;27.10;22.40;;;22.30;99.90;;;;;;5017147;28;20060;-83
2022/08/16 07:50:15;;;;;;;27.00;22.00;;;22.40;99.90;;;;;;5034825;28;20045;-86
2022/08/16 07:52:42;;;;;;;25.45;22.77;;;22.50;99.90;;;;;;5017195;28;20053;-81
2022/08/16 07:55:08;;;;;;;23.00;20.52;;;22.70;99.90;;;;;;5017195;28;20049;-84
2022/08/16 07:57:34;;;;;;;24.48;20.52;;;22.80;99.90;;;;;;5018445;28;20549;-83
2022/08/16 08:00:00;;;;;;;23.17;19.10;;;22.90;99.90;;;;;;5035394;28;20046;-82
2022/08/16 08:02:29;;;;;;;24.45;20.80;;;23.10;99.90;;;;;;5034962;28;20053;-82
2022/08/16 08:04:55;;;;;;;24.45;20.27;;;23.30;99.90;;;;;;5034963;28;20049;-82
2022/08/16 08:07:21;;;;;;;24.00;20.17;;;23.60;99.90;;;;;;5016759;28;20049;-83
2022/08/16 08:09:47;;;;;;;26.27;20.60;;;24.00;99.90;;;;;;5001416;28;20049;-83
2022/08/16 08:12:13;;;;;;;19.95;16.38;;;24.20;99.90;;;;;;5016491;28;20076;-83
2022/08/16 08:14:39;;;;;;;21.30;18.80;;;24.30;99.90;;;;;;5034710;28;20049;-83
2022/08/16 08:17:06;;;;;;;26.42;20.40;;;24.40;99.90;;;;;;5016902;28;20102;-82
2022/08/16 08:19:34;;;;;;;20.95;18.40;;;24.50;99.90;;;;;;5034628;28;20043;-83
2022/08/16 08:22:00;;;;;;;21.30;17.02;;;24.80;99.90;;;;;;5034053;28;20609;-83
2022/08/16 08:24:26;;;;;;;21.33;17.10;;;25.30;99.90;;;;;;5016653;28;20120;-83
2022/08/16 08:26:53;;;;;;;17.48;15.35;;;25.90;99.90;;;;;;5034075;28;20139;-83
2022/08/16 08:29:19;;;;;;;18.70;15.90;;;26.30;99.90;;;;;;5034421;28;20045;-84
2022/08/16 08:31:45;;;;;;;23.23;17.92;;;26.80;99.90;;;;;;5016695;28;20049;-82
2022/08/16 08:34:11;;;;;;;20.73;17.05;;;27.40;99.90;;;;;;5034217;28;20092;-83
2022/08/16 08:36:36;;;;;;;16.88;15.10;;;27.60;99.90;;;;;;5016100;28;20057;-88
2022/08/16 08:39:04;;;;;;;19.23;15.95;;;27.90;99.90;;;;;;5034143;28;20434;-84
2022/08/16 08:41:30;;;;;;;16.73;15.13;;;28.40;99.90;;;;;;5033681;28;20091;-84
2022/08/16 08:43:57;;;;;;;18.73;15.88;;;28.80;95.50;;;;;;5016508;28;20119;-83
2022/08/16 08:46:24;;;;;;;16.52;14.80;;;29.10;94.10;;;;;;5016314;28;20068;-84
2022/08/16 08:48:52;;;;;;;16.70;14.40;;;29.40;93.20;;;;;;5016125;28;20041;-82
2022/08/16 08:51:18;;;;;;;19.38;15.45;;;29.90;92.10;;;;;;5033549;28;20132;-81
2022/08/16 08:53:44;;;;;;;17.30;15.60;;;30.30;79.10;;;;;;5033792;28;20124;-82
2022/08/16 08:56:11;;;;;;;23.02;14.38;;;30.30;76.50;;;;;;4999546;28;20057;-82
2022/08/16 08:58:37;;;;;;;15.77;13.55;;;30.50;74.90;;;;;;5016798;28;20479;-83
2022/08/16 09:01:06;;;;;;;15.52;13.93;;;30.90;71.90;;;;;;5016807;28;20152;-83
2022/08/16 09:03:32;;;;;;;16.20;13.75;;;31.00;71.60;;;;;;5017458;28;20133;-84
2022/08/16 09:05:59;;;;;;;16.45;13.63;;;31.30;69.50;;;;;;5034200;28;20061;-83
2022/08/16 09:08:25;;;;;;;17.08;14.73;;;31.70;69.90;;;;;;5033763;28;20057;-84
2022/08/16 09:10:54;;;;;;;16.27;14.57;;;32.10;66.60;;;;;;5016822;28;20061;-83
2022/08/16 09:13:21;;;;;;;19.95;14.90;;;32.10;64.70;;;;;;5034708;28;20508;-85
2022/08/16 09:15:48;;;;;;;15.80;13.55;;;32.10;63.50;;;;;;5034403;28;20043;-84
2022/08/16 09:18:16;;;;;;;18.85;15.82;;;32.30;65.30;;;;;;5016356;28;20049;-87
2022/08/16 09:20:43;;;;;;;15.32;13.75;;;32.60;62.70;;;;;;5015092;28;20112;-83
2022/08/16 09:23:10;;;;;;;15.02;13.45;;;32.90;61.90;;;;;;5015849;28;20143;-82
2022/08/16 09:25:36;;;;;;;15.88;11.82;;;33.10;60.60;;;;;;5015031;28;20034;-88
2022/08/16 09:28:03;;;;;;;14.20;12.80;;;33.20;59.20;;;;;;5015829;28;20368;-84
2022/08/16 09:30:28;;;;;;;14.75;12.93;;;33.20;58.70;;;;;;5033035;28;20047;-84
2022/08/16 09:32:54;;;;;;;12.70;11.30;;;33.30;58.90;;;;;;5032830;28;20049;-84
2022/08/16 09:35:21;;;;;;;14.55;13.07;;;33.40;57.80;;;;;;5032654;28;20133;-85
2022/08/16 09:37:47;;;;;;;15.00;11.80;;;33.60;56.70;;;;;;5032653;28;20099;-84
2022/08/16 09:40:13;;;;;;;14.77;12.00;;;33.80;57.50;;;;;;5032791;28;20045;-83
2022/08/16 09:42:39;;;;;;;17.27;11.60;;;34.00;56.50;;;;;;5015401;28;20132;-81
2022/08/16 09:45:07;;;;;;;14.27;11.23;;;34.10;55.20;;;;;;5032707;28;20129;-82
2022/08/16 09:47:38;;;;;;;15.00;12.32;;;34.30;54.30;;;;;;5014825;28;20053;-82
2022/08/16 09:50:05;;;;;;;12.40;10.73;;;34.30;53.60;;;;;;5032532;28;20394;-81
2022/08/16 09:52:31;;;;;;;14.30;10.30;;;34.30;53.50;;;;;;5015441;28;20379;-83
2022/08/16 09:54:56;;;;;;;13.05;10.70;;;34.30;53.50;;;;;;5032312;28;20052;-82
2022/08/16 09:57:22;;;;;;;13.30;10.05;;;34.40;52.80;;;;;;5032709;28;20033;-82
2022/08/16 09:59:48;;;;;;;15.05;10.95;;;34.60;52.40;;;;;;5032676;28;20049;-81
2022/08/16 10:02:13;;;;;;;15.63;11.50;;;34.80;51.90;;;;;;5015324;28;20054;-82
2022/08/16 10:04:39;;;;;;;13.85;12.15;;;35.20;51.30;;;;;;5032512;28;20544;-82
2022/08/16 10:07:05;;;;;;;13.82;11.75;;;35.40;50.20;;;;;;5032221;28;20468;-81
2022/08/16 10:09:30;;;;;;;12.00;10.80;;;35.30;49.90;;;;;;5032260;28;20487;-82
2022/08/16 10:14:41;;;;;;;12.25;10.90;;;35.50;51.80;;;;;;5032664;28;20215;-81
2022/08/16 10:17:08;;;;;;;11.10;8.80;;;35.90;49.50;;;;;;5032276;28;20049;-81
2022/08/16 10:19:34;;;;;;;13.23;7.50;;;36.00;49.50;;;;;;5032468;28;20053;-83
2022/08/16 10:22:00;;;;;;;10.15;8.20;;;36.30;50.00;;;;;;5032096;28;20530;-85
2022/08/16 10:24:25;;;;;;;9.98;7.85;;;36.40;47.90;;;;;;5032151;28;20089;-83
2022/08/16 10:26:51;;;;;;;10.20;7.03;;;36.20;46.60;;;;;;5032254;28;20124;-83
2022/08/16 10:29:18;;;;;;;14.13;6.90;;;36.20;46.70;;;;;;5032143;28;20397;-84
2022/08/16 10:31:43;;;;;;;13.60;6.10;;;36.60;45.90;;;;;;5032338;28;20091;-83
2022/08/16 10:34:09;;;;;;;8.68;5.80;;;36.90;46.80;;;;;;5032609;28;20474;-83
2022/08/16 10:36:35;;;;;;;7.60;5.40;;;37.10;45.90;;;;;;4998386;28;20057;-83
2022/08/16 10:39:01;;;;;;;9.10;6.80;;;37.40;45.80;;;;;;5031822;28;20104;-84
2022/08/16 10:41:27;;;;;;;6.22;5.13;;;37.30;44.00;;;;;;5014733;28;20132;-84
2022/08/16 10:43:53;;;;;;;6.25;5.28;;;37.40;44.30;;;;;;5032167;28;20132;-83
2022/08/16 10:46:18;;;;;;;7.43;5.53;;;37.60;44.80;;;;;;5014582;28;20049;-83
2022/08/16 10:48:45;;;;;;;8.93;5.57;;;37.80;45.10;;;;;;5033869;28;20475;-84
2022/08/16 10:51:11;;;;;;;7.82;5.00;;;38.30;43.50;;;;;;5001689;28;20058;-83
2022/08/16 10:53:37;;;;;;;7.60;5.00;;;38.40;42.40;;;;;;5035482;28;20045;-84
2022/08/16 10:56:06;;;;;;;5.43;4.82;;;38.20;42.30;;;;;;5036031;28;20095;-81
2022/08/16 10:58:33;;;;;;;9.48;5.00;;;38.10;42.10;;;;;;5035862;28;20057;-79
2022/08/16 11:00:59;;;;;;;5.57;4.78;;;38.10;41.30;;;;;;5018311;28;20053;-81
2022/08/16 11:03:27;;;;;;;7.38;4.40;;;37.80;41.50;;;;;;5017993;28;20096;-82
2022/08/16 11:05:54;;;;;;;4.88;4.30;;;37.70;41.20;;;;;;5018385;28;20083;-83
2022/08/16 11:08:21;;;;;;;5.38;3.95;;;37.90;42.50;;;;;;5035352;28;20057;-81
2022/08/16 11:10:47;;;;;;;7.47;4.70;;;38.30;41.80;;;;;;5035739;28;20128;-81
2022/08/16 11:13:17;;;;;;;9.70;4.30;;;38.50;41.80;;;;;;5018398;28;20502;-81
2022/08/16 11:15:43;;;;;;;7.50;4.85;;;38.60;42.50;;;;;;5035397;28;20045;-83
2022/08/16 11:18:10;;;;;;;9.15;5.13;;;38.90;40.70;;;;;;5035658;28;20037;-81
2022/08/16 11:20:36;;;;;;;6.38;4.85;;;39.10;40.60;;;;;;5035496;28;20052;-81
2022/08/16 11:23:02;;;;;;;9.52;5.07;;;39.30;40.00;;;;;;5035251;28;20092;-83
2022/08/16 11:25:30;;;;;;;6.35;4.75;;;39.40;39.30;;;;;;5035439;28;20049;-80
2022/08/16 11:27:57;;;;;;;11.30;4.70;;;39.30;39.00;;;;;;5017851;28;20073;-81
2022/08/16 11:30:25;;;;;;;8.90;4.85;;;39.00;39.60;;;;;;5035197;28;20045;-80
2022/08/16 11:32:50;;;;;;;8.63;5.93;;;38.80;39.70;;;;;;5018014;28;20045;-82
2022/08/16 11:35:19;;;;;;;7.97;5.72;;;38.70;40.00;;;;;;5035308;28;20042;-81
2022/08/16 11:37:57;;;;;;;13.02;6.88;;;38.40;40.20;;;;;;5002020;28;20066;-83
2022/08/16 11:40:25;;;;;;;8.25;5.28;;;38.20;40.60;;;;;;5037538;28;20045;-82
2022/08/16 11:42:51;;;;;;;7.18;5.60;;;38.30;41.90;;;;;;5037528;28;20450;-82
2022/08/16 11:45:17;;;;;;;9.43;7.38;;;38.40;41.80;;;;;;5002430;28;20403;-82
2022/08/16 11:47:43;;;;;;;9.43;6.50;;;38.40;41.50;;;;;;5036258;28;20041;-83
2022/08/16 11:50:09;;;;;;;9.65;7.72;;;38.20;41.60;;;;;;5018132;28;20076;-83
2022/08/16 11:52:36;;;;;;;8.13;6.72;;;37.90;41.60;;;;;;5034834;28;20132;-83
2022/08/16 11:55:04;;;;;;;8.80;6.93;;;37.60;42.60;;;;;;5034851;28;20045;-83
2022/08/16 11:57:30;;;;;;;11.95;6.28;;;37.50;42.40;;;;;;5001695;28;20494;-82
2022/08/16 11:59:56;;;;;;;8.05;5.40;;;37.60;42.50;;;;;;5017116;28;20063;-84
2022/08/16 12:02:21;;;;;;;8.98;4.38;;;37.80;42.20;;;;;;5017765;28;20053;-83
2022/08/16 12:04:47;;;;;;;8.13;5.40;;;37.60;42.60;;;;;;5034917;28;20064;-83
2022/08/16 12:07:13;;;;;;;5.63;4.00;;;37.20;41.60;;;;;;5017395;28;20091;-83
2022/08/16 12:09:39;;;;;;;6.47;4.50;;;37.00;44.70;;;;;;5019993;28;20057;-90
2022/08/16 12:12:05;;;;;;;4.80;4.28;;;37.20;43.30;;;;;;5021003;28;20052;-82
2022/08/16 12:14:31;;;;;;;4.10;3.67;;;37.20;42.00;;;;;;5018346;28;20124;-82
2022/08/16 12:16:59;;;;;;;5.45;4.13;;;36.70;42.30;;;;;;5036071;28;20160;-82
2022/08/16 12:19:25;;;;;;;7.55;3.80;;;36.10;42.50;;;;;;5035730;28;20049;-84
2022/08/16 12:21:50;;;;;;;3.97;3.40;;;35.40;43.40;;;;;;5000741;28;20115;-82
2022/08/16 12:24:16;;;;;;;3.92;3.47;;;35.10;44.60;;;;;;5035112;28;20049;-86
2022/08/16 12:26:42;;;;;;;5.28;3.10;;;34.90;45.30;;;;;;5017086;28;20041;-83
2022/08/16 12:29:09;;;;;;;9.40;3.45;;;34.70;44.40;;;;;;5034706;28;20041;-83
2022/08/16 12:31:35;;;;;;;7.32;3.60;;;34.40;44.70;;;;;;5035427;28;20076;-83
2022/08/16 12:34:01;;;;;;;4.60;3.30;;;34.20;44.20;;;;;;5016718;28;20083;-82
2022/08/16 12:36:27;;;;;;;8.43;3.45;;;34.10;45.20;;;;;;5033819;28;20041;-85